Highspeed 7 — SYDM — position and weather

sailwx.info

Track history (hours):
 
Tides and Currents Weather Stations Pressure Air Temp Water Temp Dewpoint Dewpoint Depression Visibility Wind Speed Wind Dir Waves Ship Positions

Highspeed 7

Last reported at 2017-Aug-17 13:25 UTC. Time now 2017-Aug-18 03:05 UTC.
Position N 37°03' E 025°01'.

Length 87 m; draft 3.5 m.

Type: Ship. MMSI: 240348000.

Date/timePositionNaut miles runAvg speedWind from/ knotsBaromVisibWave heightAir tempDewpointWater temp
2017-Aug-17 13:25N 37°03' E 025°01'1215.4
2017-Aug-17 12:40N 37°12' E 025°10'637.7
2017-Aug-17 12:31N 37°17' E 025°13'1122.5
2017-Aug-17 12:00N 37°28' E 025°19'816.2
2017-Aug-17 11:30N 37°21' E 025°16'1717.3
2017-Aug-17 10:33N 37°06' E 025°05'0 3.6
2017-Aug-17 10:30N 37°06' E 025°05'4 0.2
2017-Aug-16 13:30N 37°03' E 025°01'1314.6
2017-Aug-16 12:39N 37°13' E 025°11'537.5
2017-Aug-16 12:30N 37°18' E 025°13'1121.4
2017-Aug-16 11:59N 37°28' E 025°19'817.5
2017-Aug-16 11:30N 37°20' E 025°15'1616.1
2017-Aug-16 10:31N 37°06' E 025°05'030.9
2017-Aug-16 10:30N 37°06' E 025°05'4 0.2
2017-Aug-15 13:17N 37°03' E 025°02'1215.3
2017-Aug-15 12:31N 37°12' E 025°11'038.6
2017-Aug-15 12:30N 37°13' E 025°11'1733.1
2017-Aug-15 12:00N 37°28' E 025°19'3 6.3
2017-Aug-15 11:31N 37°25' E 025°17'2118.2
2017-Aug-15 10:20N 37°06' E 025°06'4 0.2
2017-Aug-14 13:18N 37°03' E 025°01'1215.2
2017-Aug-14 12:32N 37°12' E 025°11'137.1
2017-Aug-14 12:31N 37°13' E 025°11'1632.4
2017-Aug-14 12:00N 37°28' E 025°19'4 7.9
2017-Aug-14 11:30N 37°24' E 025°17'2018.7
2017-Aug-14 10:25N 37°06' E 025°05'4 0.1
2017-Aug-12 13:27N 37°03' E 025°02'1114.9
2017-Aug-12 12:42N 37°12' E 025°10'736.9
2017-Aug-12 12:30N 37°18' E 025°14'1020.8
2017-Aug-12 12:00N 37°28' E 025°19'611.9
2017-Aug-12 11:31N 37°22' E 025°17'1818.5
2017-Aug-12 10:31N 37°06' E 025°06'034.5
2017-Aug-12 10:31N 37°06' E 025°06'4 0.2
2017-Aug-11 13:24N 37°03' E 025°01'1214.5
2017-Aug-11 12:36N 37°12' E 025°11'337.9
2017-Aug-11 12:30N 37°15' E 025°12'1427.8
2017-Aug-11 12:00N 37°28' E 025°19'612.1
2017-Aug-11 11:31N 37°22' E 025°17'1817.8
2017-Aug-11 10:28N 37°06' E 025°05'5 0.2
2017-Aug-10 13:25N 37°03' E 025°01'1213.7
2017-Aug-10 12:34N 37°12' E 025°10'236.9
2017-Aug-10 12:31N 37°14' E 025°11'1530.4
2017-Aug-10 12:00N 37°28' E 025°19'2 3.2
2017-Aug-10 11:31N 37°27' E 025°18'2319.7
2017-Aug-10 10:21N 37°06' E 025°06'4 0.2
2017-Aug-09 13:28N 37°03' E 025°01'1114.5
2017-Aug-09 12:41N 37°12' E 025°10'636.2
2017-Aug-09 12:30N 37°18' E 025°14'1122.0
2017-Aug-09 12:01N 37°28' E 025°19'714.4
2017-Aug-09 11:31N 37°21' E 025°16'1717.4
2017-Aug-09 10:32N 37°06' E 025°05'134.3
2017-Aug-09 10:31N 37°06' E 025°05'4 0.2
2017-Aug-08 13:10N 37°03' E 025°02'1214.5
2017-Aug-08 12:20N 37°12' E 025°11'1237.4
2017-Aug-08 12:00N 37°24' E 025°17'4 8.6
2017-Aug-08 11:30N 37°28' E 025°19'1529.6
2017-Aug-08 11:01N 37°14' E 025°12'911.7
2017-Aug-08 10:16N 37°07' E 025°06'5 0.3
2017-Aug-07 13:27N 37°03' E 025°03'  
Track history (hours):
 
Tides and Currents Weather Stations Pressure Air Temp Water Temp Dewpoint Dewpoint Depression Visibility Wind Speed Wind Dir Waves Ship Positions

Highspeed 7

Last reported at 2017-Aug-17 13:25 UTC. Time now 2017-Aug-18 03:05 UTC.
Position N 37°03' E 025°01'.

Length 87 m; draft 3.5 m.

Type: Ship. MMSI: 240348000.

Date/timePositionNaut miles runAvg speedWind from/ knotsBaromVisibWave heightAir tempDewpointWater temp
2017-Aug-17 13:25N 37°03' E 025°01'1215.4
2017-Aug-17 12:40N 37°12' E 025°10'637.7
2017-Aug-17 12:31N 37°17' E 025°13'1122.5
2017-Aug-17 12:00N 37°28' E 025°19'816.2
2017-Aug-17 11:30N 37°21' E 025°16'1717.3
2017-Aug-17 10:33N 37°06' E 025°05'0 3.6
2017-Aug-17 10:30N 37°06' E 025°05'4 0.2
2017-Aug-16 13:30N 37°03' E 025°01'1314.6
2017-Aug-16 12:39N 37°13' E 025°11'537.5
2017-Aug-16 12:30N 37°18' E 025°13'1121.4
2017-Aug-16 11:59N 37°28' E 025°19'817.5
2017-Aug-16 11:30N 37°20' E 025°15'1616.1
2017-Aug-16 10:31N 37°06' E 025°05'030.9
2017-Aug-16 10:30N 37°06' E 025°05'4 0.2
2017-Aug-15 13:17N 37°03' E 025°02'1215.3
2017-Aug-15 12:31N 37°12' E 025°11'038.6
2017-Aug-15 12:30N 37°13' E 025°11'1733.1
2017-Aug-15 12:00N 37°28' E 025°19'3 6.3
2017-Aug-15 11:31N 37°25' E 025°17'2118.2
2017-Aug-15 10:20N 37°06' E 025°06'4 0.2
2017-Aug-14 13:18N 37°03' E 025°01'1215.2
2017-Aug-14 12:32N 37°12' E 025°11'137.1
2017-Aug-14 12:31N 37°13' E 025°11'1632.4
2017-Aug-14 12:00N 37°28' E 025°19'4 7.9
2017-Aug-14 11:30N 37°24' E 025°17'2018.7
2017-Aug-14 10:25N 37°06' E 025°05'4 0.1
2017-Aug-12 13:27N 37°03' E 025°02'1114.9
2017-Aug-12 12:42N 37°12' E 025°10'736.9
2017-Aug-12 12:30N 37°18' E 025°14'1020.8
2017-Aug-12 12:00N 37°28' E 025°19'611.9
2017-Aug-12 11:31N 37°22' E 025°17'1818.5
2017-Aug-12 10:31N 37°06' E 025°06'034.5
2017-Aug-12 10:31N 37°06' E 025°06'4 0.2
2017-Aug-11 13:24N 37°03' E 025°01'1214.5
2017-Aug-11 12:36N 37°12' E 025°11'337.9
2017-Aug-11 12:30N 37°15' E 025°12'1427.8
2017-Aug-11 12:00N 37°28' E 025°19'612.1
2017-Aug-11 11:31N 37°22' E 025°17'1817.8
2017-Aug-11 10:28N 37°06' E 025°05'5 0.2
2017-Aug-10 13:25N 37°03' E 025°01'1213.7
2017-Aug-10 12:34N 37°12' E 025°10'236.9
2017-Aug-10 12:31N 37°14' E 025°11'1530.4
2017-Aug-10 12:00N 37°28' E 025°19'2 3.2
2017-Aug-10 11:31N 37°27' E 025°18'2319.7
2017-Aug-10 10:21N 37°06' E 025°06'4 0.2
2017-Aug-09 13:28N 37°03' E 025°01'1114.5
2017-Aug-09 12:41N 37°12' E 025°10'636.2
2017-Aug-09 12:30N 37°18' E 025°14'1122.0
2017-Aug-09 12:01N 37°28' E 025°19'714.4
2017-Aug-09 11:31N 37°21' E 025°16'1717.4
2017-Aug-09 10:32N 37°06' E 025°05'134.3
2017-Aug-09 10:31N 37°06' E 025°05'4 0.2
2017-Aug-08 13:10N 37°03' E 025°02'1214.5
2017-Aug-08 12:20N 37°12' E 025°11'1237.4
2017-Aug-08 12:00N 37°24' E 025°17'4 8.6
2017-Aug-08 11:30N 37°28' E 025°19'1529.6
2017-Aug-08 11:01N 37°14' E 025°12'911.7
2017-Aug-08 10:16N 37°07' E 025°06'5 0.3
2017-Aug-07 13:27N 37°03' E 025°03'  

Dump ship's entire track history